createdAt,value
2019-02-28T00:02:37.733Z,3.27
2019-02-28T00:06:44.060Z,2.60
2019-02-28T00:10:49.223Z,2.83
2019-02-28T00:14:55.070Z,2.80
2019-02-28T00:18:59.959Z,2.70
2019-02-28T00:23:04.920Z,3.10
2019-02-28T00:27:09.817Z,2.87
2019-02-28T00:31:15.430Z,2.77
2019-02-28T00:35:20.367Z,3.00
2019-02-28T00:39:25.253Z,2.60
2019-02-28T00:43:30.386Z,2.67
2019-02-28T00:47:35.274Z,2.90
2019-02-28T00:51:40.438Z,3.50
2019-02-28T00:55:46.224Z,3.10
2019-02-28T00:59:51.893Z,3.00
2019-02-28T01:03:57.976Z,3.33
2019-02-28T01:08:03.463Z,3.90
2019-02-28T01:12:08.357Z,3.20
2019-02-28T01:16:16.102Z,3.57
2019-02-28T01:20:19.824Z,3.87
2019-02-28T01:24:24.709Z,4.33
2019-02-28T01:28:29.613Z,4.63
2019-02-28T01:32:34.504Z,5.20
2019-02-28T01:36:39.405Z,5.70
2019-02-28T01:40:44.298Z,5.13
2019-02-28T01:44:49.185Z,5.23
2019-02-28T01:48:54.556Z,4.90
2019-02-28T01:53:00.058Z,6.50
2019-02-28T01:57:04.957Z,5.57
2019-02-28T02:01:09.846Z,4.87
2019-02-28T02:05:17.069Z,6.53
2019-02-28T02:09:21.971Z,6.33
2019-02-28T02:13:26.863Z,6.23
2019-02-28T02:17:32.268Z,6.87
2019-02-28T02:21:38.357Z,6.13
2019-02-28T02:25:43.249Z,6.33
2019-02-28T02:29:48.140Z,6.10
2019-02-28T02:33:53.050Z,5.70
2019-02-28T02:37:57.941Z,6.87
2019-02-28T02:42:10.066Z,6.90
2019-02-28T02:46:09.438Z,5.63
2019-02-28T02:50:15.264Z,6.37
2019-02-28T02:54:20.356Z,5.93
2019-02-28T02:58:27.807Z,6.57
2019-02-28T03:02:33.265Z,6.50
2019-02-28T03:06:38.441Z,7.43
2019-02-28T03:10:43.330Z,6.87
2019-02-28T03:14:49.093Z,7.33
2019-02-28T03:18:58.220Z,7.63
2019-02-28T03:23:03.182Z,6.80
2019-02-28T03:27:08.279Z,6.60
2019-02-28T03:31:15.431Z,7.60
2019-02-28T03:35:19.772Z,7.10
2019-02-28T03:39:25.784Z,7.80
2019-02-28T03:43:30.847Z,7.60
2019-02-28T03:47:35.754Z,7.37
2019-02-28T03:51:40.666Z,7.13
2019-02-28T03:55:45.528Z,7.33
2019-02-28T03:59:55.373Z,7.43
2019-02-28T04:03:57.089Z,9.87
2019-02-28T04:08:01.999Z,7.83
2019-02-28T04:12:08.680Z,8.27
2019-02-28T04:16:13.477Z,7.60
2019-02-28T04:20:18.540Z,8.47
2019-02-28T04:24:23.409Z,7.27
2019-02-28T04:28:28.304Z,8.10
2019-02-28T04:32:33.200Z,8.97
2019-02-28T04:36:38.095Z,8.63
2019-02-28T04:40:43.951Z,8.77
2019-02-28T04:44:49.256Z,8.43
2019-02-28T04:48:55.446Z,8.77
2019-02-28T04:53:00.340Z,8.00
2019-02-28T04:57:05.234Z,8.20
2019-02-28T05:01:12.292Z,7.80
2019-02-28T05:05:16.728Z,8.80
2019-02-28T05:09:21.893Z,8.87
2019-02-28T05:13:26.795Z,7.93
2019-02-28T05:17:31.703Z,8.40
2019-02-28T05:21:36.583Z,8.57
2019-02-28T05:25:41.480Z,9.87
2019-02-28T05:29:46.377Z,8.53
2019-02-28T05:33:51.286Z,9.67
2019-02-28T05:37:56.172Z,9.87
2019-02-28T05:42:01.059Z,9.37
2019-02-28T05:46:05.956Z,9.23
2019-02-28T05:50:15.224Z,9.43
2019-02-28T05:54:18.632Z,9.87
2019-02-28T05:58:23.491Z,8.63
2019-02-28T06:02:28.380Z,9.40
2019-02-28T06:06:33.277Z,9.90
2019-02-28T06:10:38.180Z,10.07
2019-02-28T06:14:43.081Z,9.33
2019-02-28T06:18:47.981Z,9.77
2019-02-28T06:22:52.870Z,11.53
2019-02-28T06:26:57.774Z,12.03
2019-02-28T06:31:02.687Z,13.60
2019-02-28T06:35:07.584Z,15.40
2019-02-28T06:39:12.491Z,16.10
2019-02-28T06:43:18.737Z,17.37
2019-02-28T06:47:23.985Z,21.67
2019-02-28T06:51:28.893Z,19.00
2019-02-28T06:55:33.838Z,19.13
2019-02-28T06:59:39.159Z,19.53
2019-02-28T07:03:53.331Z,19.67
2019-02-28T07:07:51.139Z,20.20
2019-02-28T07:11:56.039Z,22.13
2019-02-28T07:16:00.963Z,21.60
2019-02-28T07:20:11.737Z,22.90
2019-02-28T07:24:16.644Z,23.53
2019-02-28T07:28:21.554Z,24.20
2019-02-28T07:32:26.460Z,23.77
2019-02-28T07:36:31.369Z,22.97
2019-02-28T07:40:37.345Z,24.90
2019-02-28T07:44:42.256Z,22.13
2019-02-28T07:48:47.174Z,23.20
2019-02-28T07:52:53.180Z,23.10
2019-02-28T07:56:59.118Z,24.43
2019-02-28T08:01:04.024Z,22.60
2019-02-28T08:05:12.172Z,21.30
2019-02-28T08:09:28.178Z,20.87
2019-02-28T08:13:34.643Z,20.40
2019-02-28T08:17:40.674Z,21.23
2019-02-28T08:21:50.305Z,23.20
2019-02-28T08:25:52.961Z,21.00
2019-02-28T08:29:57.866Z,20.93
2019-02-28T08:34:02.771Z,19.37
2019-02-28T08:38:07.689Z,19.93
2019-02-28T08:42:12.599Z,18.73
2019-02-28T08:46:17.516Z,21.07
2019-02-28T08:50:25.483Z,19.07
2019-02-28T08:54:30.385Z,19.30
2019-02-28T08:58:37.592Z,18.83
2019-02-28T09:02:42.797Z,17.77
2019-02-28T09:06:47.707Z,18.77
2019-02-28T09:10:52.622Z,18.83
2019-02-28T09:14:57.526Z,15.93
2019-02-28T09:19:02.434Z,20.63
2019-02-28T09:23:07.422Z,16.43
2019-02-28T09:27:12.364Z,17.80
2019-02-28T09:31:17.247Z,16.80
2019-02-28T09:35:22.176Z,15.70
2019-02-28T09:39:27.089Z,15.60
2019-02-28T09:43:32.010Z,16.13
2019-02-28T09:47:36.918Z,16.17
2019-02-28T09:51:42.518Z,16.43
2019-02-28T09:55:47.496Z,16.57
2019-02-28T09:59:52.411Z,15.30
2019-02-28T10:03:57.326Z,17.30
2019-02-28T10:08:03.113Z,16.77
2019-02-28T10:12:08.839Z,14.37
2019-02-28T10:16:16.774Z,15.03
2019-02-28T10:20:27.185Z,14.90
2019-02-28T10:24:31.440Z,15.83
2019-02-28T10:28:37.168Z,13.90
2019-02-28T10:32:43.329Z,14.60
2019-02-28T10:36:48.937Z,13.57
2019-02-28T10:40:53.863Z,13.90
2019-02-28T10:44:58.787Z,14.07
2019-02-28T10:49:03.694Z,14.07
2019-02-28T10:53:08.610Z,13.90
2019-02-28T10:57:13.587Z,12.70
2019-02-28T11:01:18.504Z,13.63
2019-02-28T11:05:34.280Z,12.87
2019-02-28T11:09:39.265Z,14.70
2019-02-28T11:13:44.951Z,14.43
2019-02-28T11:17:49.864Z,14.50
2019-02-28T11:21:54.761Z,13.47
2019-02-28T11:26:01.716Z,13.43
2019-02-28T11:30:10.143Z,12.70
2019-02-28T11:34:15.970Z,15.17
2019-02-28T11:38:21.725Z,14.87
2019-02-28T11:42:29.018Z,15.60
2019-02-28T11:46:36.642Z,15.27
2019-02-28T11:50:44.167Z,15.40
2019-02-28T11:54:47.971Z,15.57
2019-02-28T11:58:52.903Z,15.10
2019-02-28T12:03:00.756Z,16.13
2019-02-28T12:07:04.636Z,14.20
2019-02-28T12:11:09.615Z,15.23
2019-02-28T12:15:20.197Z,14.43
2019-02-28T12:19:25.135Z,16.13
2019-02-28T12:23:30.016Z,14.73
2019-02-28T12:27:34.929Z,14.60
2019-02-28T12:31:39.852Z,15.07
2019-02-28T12:35:44.760Z,15.00
2019-02-28T12:39:49.669Z,13.77
2019-02-28T12:43:54.577Z,15.40
2019-02-28T12:47:59.486Z,15.13
2019-02-28T12:52:04.469Z,17.30
2019-02-28T12:56:11.204Z,15.70
2019-02-28T13:00:23.486Z,17.67
2019-02-28T13:04:27.987Z,16.73
2019-02-28T13:08:32.900Z,17.10
2019-02-28T13:12:37.986Z,17.20
2019-02-28T13:16:42.902Z,17.67
2019-02-28T13:20:47.882Z,16.97
2019-02-28T13:24:52.777Z,16.37
2019-02-28T13:28:58.129Z,16.03
2019-02-28T13:33:03.112Z,16.43
2019-02-28T13:37:08.111Z,16.53
2019-02-28T13:41:17.810Z,17.07
2019-02-28T13:45:23.061Z,15.87
2019-02-28T13:49:27.641Z,15.83
2019-02-28T13:53:32.567Z,16.53
2019-02-28T13:57:40.700Z,16.67
2019-02-28T14:01:44.105Z,16.40
2019-02-28T14:05:50.147Z,16.53
2019-02-28T14:09:58.174Z,17.23
2019-02-28T14:14:06.260Z,16.20
2019-02-28T14:18:10.693Z,16.40
2019-02-28T14:22:15.944Z,17.37
2019-02-28T14:26:20.982Z,16.97
2019-02-28T14:30:26.664Z,17.03
2019-02-28T14:34:31.579Z,17.53
2019-02-28T14:38:36.552Z,19.23
2019-02-28T14:42:43.541Z,18.67
2019-02-28T14:46:49.775Z,19.13
2019-02-28T14:50:55.644Z,18.73
2019-02-28T14:55:00.564Z,18.60
2019-02-28T14:59:05.476Z,18.43
2019-02-28T15:03:10.455Z,25.50
2019-02-28T15:07:15.451Z,19.43
2019-02-28T15:11:20.363Z,19.57
2019-02-28T15:15:25.542Z,19.60
2019-02-28T15:19:30.448Z,19.77
2019-02-28T15:23:35.365Z,19.47
2019-02-28T15:27:40.273Z,20.20
2019-02-28T15:31:45.201Z,21.00
2019-02-28T15:35:50.480Z,20.80
2019-02-28T15:39:55.550Z,20.40
2019-02-28T15:44:00.459Z,22.20
2019-02-28T15:48:05.515Z,23.60
2019-02-28T15:52:10.495Z,21.87
2019-02-28T15:56:19.537Z,22.57
2019-02-28T16:00:32.673Z,23.33
2019-02-28T16:04:37.583Z,22.37
2019-02-28T16:08:46.784Z,24.27
2019-02-28T16:12:49.901Z,24.53
2019-02-28T16:16:56.786Z,26.00
2019-02-28T16:21:03.671Z,20.67
2019-02-28T16:25:14.800Z,22.40
2019-02-28T16:29:20.617Z,22.13
2019-02-28T16:33:25.515Z,31.20
2019-02-28T16:37:32.384Z,40.13
2019-02-28T16:41:37.633Z,38.83
2019-02-28T16:45:49.706Z,38.70
2019-02-28T16:49:54.610Z,37.97
2019-02-28T16:53:59.522Z,35.03
2019-02-28T16:58:04.531Z,28.20
2019-02-28T17:02:09.409Z,24.73
2019-02-28T17:06:14.395Z,22.97
2019-02-28T17:10:33.177Z,21.63
2019-02-28T17:14:38.075Z,20.50
2019-02-28T17:18:42.978Z,19.90
2019-02-28T17:22:47.894Z,18.57
2019-02-28T17:26:54.448Z,20.43
2019-02-28T17:31:01.005Z,17.27
2019-02-28T17:35:08.421Z,16.37
2019-02-28T17:39:14.844Z,13.23
2019-02-28T17:43:24.126Z,17.67
2019-02-28T17:47:36.640Z,9.90
2019-02-28T17:51:45.510Z,5.03
2019-02-28T17:56:22.965Z,4.57
2019-02-28T18:00:43.672Z,4.03
2019-02-28T18:05:07.961Z,3.67
2019-02-28T18:09:22.042Z,3.57
2019-02-28T18:13:32.629Z,3.43
2019-02-28T18:18:02.032Z,2.83
2019-02-28T18:22:34.613Z,2.97
2019-02-28T18:27:14.231Z,2.80
2019-02-28T18:31:22.270Z,2.97
2019-02-28T18:35:25.741Z,2.97
2019-02-28T18:39:30.671Z,3.80
2019-02-28T18:43:35.580Z,3.40
2019-02-28T18:47:40.761Z,2.90
2019-02-28T18:51:45.655Z,3.50
2019-02-28T18:55:50.545Z,3.63
2019-02-28T18:59:56.522Z,3.90
2019-02-28T19:04:02.398Z,3.90
2019-02-28T19:08:07.299Z,4.03
2019-02-28T19:12:12.219Z,5.43
2019-02-28T19:16:17.114Z,4.83
2019-02-28T19:20:22.034Z,5.83
2019-02-28T19:24:26.930Z,6.17
2019-02-28T19:28:31.840Z,7.37
2019-02-28T19:32:36.734Z,6.50
2019-02-28T19:36:41.717Z,7.47
2019-02-28T19:40:46.623Z,7.20
2019-02-28T19:44:51.528Z,6.63
2019-02-28T19:48:56.610Z,7.37
2019-02-28T19:53:01.523Z,6.90
2019-02-28T19:57:06.417Z,8.23
2019-02-28T20:01:18.756Z,7.67
2019-02-28T20:05:18.496Z,7.53
2019-02-28T20:09:23.397Z,8.60
2019-02-28T20:13:28.342Z,8.87
2019-02-28T20:17:33.246Z,7.47
2019-02-28T20:21:38.154Z,9.63
2019-02-28T20:25:43.139Z,8.93
2019-02-28T20:29:54.894Z,8.67
2019-02-28T20:33:54.649Z,10.27
2019-02-28T20:37:59.561Z,9.67
2019-02-28T20:42:04.476Z,9.43
2019-02-28T20:46:10.560Z,9.30
2019-02-28T20:50:24.311Z,9.97
2019-02-28T20:54:29.211Z,9.27
2019-02-28T20:58:34.126Z,9.40
2019-02-28T21:02:39.047Z,10.30
2019-02-28T21:06:43.966Z,9.93
2019-02-28T21:10:49.010Z,10.40
2019-02-28T21:14:53.914Z,11.03
2019-02-28T21:18:58.893Z,10.70
2019-02-28T21:23:03.806Z,11.83
2019-02-28T21:27:08.721Z,10.53
2019-02-28T21:31:13.670Z,10.27
2019-02-28T21:35:18.637Z,11.50
2019-02-28T21:39:23.619Z,10.40
2019-02-28T21:43:28.597Z,10.63
2019-02-28T21:47:33.586Z,10.37
2019-02-28T21:51:38.497Z,11.57
2019-02-28T21:55:43.397Z,11.23
2019-02-28T21:59:48.311Z,11.03
2019-02-28T22:03:53.224Z,11.57
2019-02-28T22:07:58.136Z,11.03
2019-02-28T22:12:03.049Z,11.93
2019-02-28T22:16:07.967Z,10.30
2019-02-28T22:20:14.517Z,9.90
2019-02-28T22:24:19.429Z,10.23
2019-02-28T22:28:24.339Z,10.20
2019-02-28T22:32:31.963Z,9.67
2019-02-28T22:36:38.520Z,10.43
2019-02-28T22:40:43.416Z,10.07
2019-02-28T22:44:48.329Z,10.50
2019-02-28T22:48:53.232Z,9.80
2019-02-28T22:52:58.151Z,10.50
2019-02-28T22:57:03.049Z,9.97
2019-02-28T23:01:14.701Z,11.30
2019-02-28T23:05:19.825Z,10.37
2019-02-28T23:09:24.729Z,9.60
2019-02-28T23:13:29.711Z,10.00
2019-02-28T23:17:34.619Z,10.60
2019-02-28T23:21:39.514Z,9.80
2019-02-28T23:25:44.411Z,9.57
2019-02-28T23:29:58.113Z,7.37
2019-02-28T23:34:12.785Z,8.10
2019-02-28T23:38:17.712Z,7.83
2019-02-28T23:42:22.602Z,7.07
2019-02-28T23:46:27.512Z,6.67
2019-02-28T23:50:32.419Z,6.07
2019-02-28T23:54:37.326Z,5.63
2019-02-28T23:58:42.571Z,4.43
